<?xml version="1.0" encoding="utf-8"?>
<gpx xmlns:xsi="http://www.w3.org/2001/XMLSchema-instance" xmlns:xsd="http://www.w3.org/2001/XMLSchema" version="1.1" creator="Shapelink.com" xmlns="http://www.topografix.com/GPX/1/1" xmlns:gpxtpx="http://www.garmin.com/xmlschemas/TrackPointExtension/v1">
  <metadata>
    <name>Löpning 2.73 km, 2012-03-15</name>
    <desc></desc>
    <author><name>Alexander Engvall</name></author> 
    <time>2012-03-15T18:21:16Z</time>
  </metadata>
  <trk>
    <name>Löpning 2.73 km, 2012-03-15</name>
    <trkseg>
      <trkpt lat="59.4596304" lon="17.8025732">
        <ele>24.2</ele>
        <time>2012-03-15T18:21:16Z</time>
      </trkpt>
      <trkpt lat="59.4596718" lon="17.8024447">
        <ele>27</ele>
        <time>2012-03-15T18:21:19Z</time>
      </trkpt>
      <trkpt lat="59.4597729" lon="17.8024127">
        <ele>33.4</ele>
        <time>2012-03-15T18:21:23Z</time>
      </trkpt>
      <trkpt lat="59.4599667" lon="17.8024023">
        <ele>49.2</ele>
        <time>2012-03-15T18:21:32Z</time>
      </trkpt>
      <trkpt lat="59.4601381" lon="17.8023018">
        <ele>45.4</ele>
        <time>2012-03-15T18:21:40Z</time>
      </trkpt>
      <trkpt lat="59.4602942" lon="17.8020687">
        <ele>37.6</ele>
        <time>2012-03-15T18:21:48Z</time>
      </trkpt>
      <trkpt lat="59.460409" lon="17.8017527">
        <ele>35.8</ele>
        <time>2012-03-15T18:21:56Z</time>
      </trkpt>
      <trkpt lat="59.4604692" lon="17.8013912">
        <ele>29.8</ele>
        <time>2012-03-15T18:22:04Z</time>
      </trkpt>
      <trkpt lat="59.4605327" lon="17.8011503">
        <ele>28.6</ele>
        <time>2012-03-15T18:22:10Z</time>
      </trkpt>
      <trkpt lat="59.4605683" lon="17.8011359">
        <ele>29.2</ele>
        <time>2012-03-15T18:22:12Z</time>
      </trkpt>
      <trkpt lat="59.4607365" lon="17.8011672">
        <ele>26.4</ele>
        <time>2012-03-15T18:22:19Z</time>
      </trkpt>
      <trkpt lat="59.4607701" lon="17.8011621">
        <ele>25.6</ele>
        <time>2012-03-15T18:22:21Z</time>
      </trkpt>
      <trkpt lat="59.4609565" lon="17.8012488">
        <ele>22.6</ele>
        <time>2012-03-15T18:22:31Z</time>
      </trkpt>
      <trkpt lat="59.4611421" lon="17.8012176">
        <ele>20.2</ele>
        <time>2012-03-15T18:22:40Z</time>
      </trkpt>
      <trkpt lat="59.4612062" lon="17.8008561">
        <ele>18.8</ele>
        <time>2012-03-15T18:22:48Z</time>
      </trkpt>
      <trkpt lat="59.4613089" lon="17.8008041">
        <ele>19.4</ele>
        <time>2012-03-15T18:22:52Z</time>
      </trkpt>
      <trkpt lat="59.46139" lon="17.8008215">
        <ele>20.2</ele>
        <time>2012-03-15T18:22:55Z</time>
      </trkpt>
      <trkpt lat="59.4615737" lon="17.8008754">
        <ele>19.6</ele>
        <time>2012-03-15T18:23:03Z</time>
      </trkpt>
      <trkpt lat="59.4617697" lon="17.8009082">
        <ele>18.6</ele>
        <time>2012-03-15T18:23:11Z</time>
      </trkpt>
      <trkpt lat="59.4619698" lon="17.8009528">
        <ele>17.8</ele>
        <time>2012-03-15T18:23:19Z</time>
      </trkpt>
      <trkpt lat="59.4621543" lon="17.8009859">
        <ele>17.2</ele>
        <time>2012-03-15T18:23:27Z</time>
      </trkpt>
      <trkpt lat="59.4623387" lon="17.8009864">
        <ele>17.4</ele>
        <time>2012-03-15T18:23:35Z</time>
      </trkpt>
      <trkpt lat="59.4625213" lon="17.8010152">
        <ele>16</ele>
        <time>2012-03-15T18:23:43Z</time>
      </trkpt>
      <trkpt lat="59.4627224" lon="17.8010323">
        <ele>15.4</ele>
        <time>2012-03-15T18:23:51Z</time>
      </trkpt>
      <trkpt lat="59.46291" lon="17.8010218">
        <ele>14.4</ele>
        <time>2012-03-15T18:23:59Z</time>
      </trkpt>
      <trkpt lat="59.4630976" lon="17.8010339">
        <ele>12</ele>
        <time>2012-03-15T18:24:08Z</time>
      </trkpt>
      <trkpt lat="59.4632924" lon="17.8009523">
        <ele>10.2</ele>
        <time>2012-03-15T18:24:17Z</time>
      </trkpt>
      <trkpt lat="59.4634685" lon="17.8008353">
        <ele>9.4</ele>
        <time>2012-03-15T18:24:24Z</time>
      </trkpt>
      <trkpt lat="59.4636689" lon="17.8008321">
        <ele>9.6</ele>
        <time>2012-03-15T18:24:32Z</time>
      </trkpt>
      <trkpt lat="59.4638662" lon="17.8008885">
        <ele>10</ele>
        <time>2012-03-15T18:24:40Z</time>
      </trkpt>
      <trkpt lat="59.4640581" lon="17.8009271">
        <ele>9.6</ele>
        <time>2012-03-15T18:24:48Z</time>
      </trkpt>
      <trkpt lat="59.4642579" lon="17.8009401">
        <ele>6.8</ele>
        <time>2012-03-15T18:24:56Z</time>
      </trkpt>
      <trkpt lat="59.4644615" lon="17.8009735">
        <ele>4.4</ele>
        <time>2012-03-15T18:25:04Z</time>
      </trkpt>
      <trkpt lat="59.4646392" lon="17.8009177">
        <ele>1.6</ele>
        <time>2012-03-15T18:25:11Z</time>
      </trkpt>
      <trkpt lat="59.4646711" lon="17.8008544">
        <ele>1</ele>
        <time>2012-03-15T18:25:13Z</time>
      </trkpt>
      <trkpt lat="59.4645853" lon="17.8007047">
        <ele>0.8</ele>
        <time>2012-03-15T18:25:19Z</time>
      </trkpt>
      <trkpt lat="59.4645657" lon="17.8006924">
        <ele>0.4</ele>
        <time>2012-03-15T18:25:20Z</time>
      </trkpt>
      <trkpt lat="59.4643896" lon="17.8006094">
        <ele>0</ele>
        <time>2012-03-15T18:25:29Z</time>
      </trkpt>
      <trkpt lat="59.464218" lon="17.8004671">
        <ele>0</ele>
        <time>2012-03-15T18:25:38Z</time>
      </trkpt>
      <trkpt lat="59.464044" lon="17.8003551">
        <ele>5.2</ele>
        <time>2012-03-15T18:25:47Z</time>
      </trkpt>
      <trkpt lat="59.4638568" lon="17.8002897">
        <ele>5.8</ele>
        <time>2012-03-15T18:25:55Z</time>
      </trkpt>
      <trkpt lat="59.4636757" lon="17.8002125">
        <ele>6</ele>
        <time>2012-03-15T18:26:03Z</time>
      </trkpt>
      <trkpt lat="59.4634887" lon="17.8001065">
        <ele>4.8</ele>
        <time>2012-03-15T18:26:12Z</time>
      </trkpt>
      <trkpt lat="59.4632892" lon="17.8000324">
        <ele>7.2</ele>
        <time>2012-03-15T18:26:20Z</time>
      </trkpt>
      <trkpt lat="59.4631089" lon="17.7999532">
        <ele>3.4</ele>
        <time>2012-03-15T18:26:28Z</time>
      </trkpt>
      <trkpt lat="59.4629156" lon="17.7998485">
        <ele>1</ele>
        <time>2012-03-15T18:26:37Z</time>
      </trkpt>
      <trkpt lat="59.4627219" lon="17.799707">
        <ele>0</ele>
        <time>2012-03-15T18:26:46Z</time>
      </trkpt>
      <trkpt lat="59.4625206" lon="17.7996352">
        <ele>2.6</ele>
        <time>2012-03-15T18:26:55Z</time>
      </trkpt>
      <trkpt lat="59.4623165" lon="17.7995859">
        <ele>6.6</ele>
        <time>2012-03-15T18:27:04Z</time>
      </trkpt>
      <trkpt lat="59.4621305" lon="17.7995159">
        <ele>8.2</ele>
        <time>2012-03-15T18:27:11Z</time>
      </trkpt>
      <trkpt lat="59.4619424" lon="17.7994348">
        <ele>10.6</ele>
        <time>2012-03-15T18:27:19Z</time>
      </trkpt>
      <trkpt lat="59.4617581" lon="17.7993982">
        <ele>9.2</ele>
        <time>2012-03-15T18:27:27Z</time>
      </trkpt>
      <trkpt lat="59.4615596" lon="17.7994039">
        <ele>6.2</ele>
        <time>2012-03-15T18:27:36Z</time>
      </trkpt>
      <trkpt lat="59.4613659" lon="17.7994185">
        <ele>3.6</ele>
        <time>2012-03-15T18:27:45Z</time>
      </trkpt>
      <trkpt lat="59.4611666" lon="17.7994428">
        <ele>6</ele>
        <time>2012-03-15T18:27:54Z</time>
      </trkpt>
      <trkpt lat="59.4609668" lon="17.7994529">
        <ele>9</ele>
        <time>2012-03-15T18:28:03Z</time>
      </trkpt>
      <trkpt lat="59.460778" lon="17.7995169">
        <ele>14</ele>
        <time>2012-03-15T18:28:11Z</time>
      </trkpt>
      <trkpt lat="59.4605804" lon="17.7995783">
        <ele>12.2</ele>
        <time>2012-03-15T18:28:20Z</time>
      </trkpt>
      <trkpt lat="59.4603988" lon="17.7997">
        <ele>8.4</ele>
        <time>2012-03-15T18:28:29Z</time>
      </trkpt>
      <trkpt lat="59.46023" lon="17.7998496">
        <ele>5</ele>
        <time>2012-03-15T18:28:38Z</time>
      </trkpt>
      <trkpt lat="59.4600559" lon="17.8000071">
        <ele>6.2</ele>
        <time>2012-03-15T18:28:47Z</time>
      </trkpt>
      <trkpt lat="59.4598781" lon="17.8001555">
        <ele>8.4</ele>
        <time>2012-03-15T18:28:57Z</time>
      </trkpt>
      <trkpt lat="59.4597047" lon="17.8002613">
        <ele>7.6</ele>
        <time>2012-03-15T18:29:06Z</time>
      </trkpt>
      <trkpt lat="59.4595352" lon="17.8003939">
        <ele>12.4</ele>
        <time>2012-03-15T18:29:16Z</time>
      </trkpt>
      <trkpt lat="59.4593513" lon="17.8004725">
        <ele>15.6</ele>
        <time>2012-03-15T18:29:26Z</time>
      </trkpt>
      <trkpt lat="59.4591695" lon="17.8005478">
        <ele>17</ele>
        <time>2012-03-15T18:29:36Z</time>
      </trkpt>
      <trkpt lat="59.4589772" lon="17.8005866">
        <ele>14.4</ele>
        <time>2012-03-15T18:29:46Z</time>
      </trkpt>
      <trkpt lat="59.4587862" lon="17.8006171">
        <ele>11.8</ele>
        <time>2012-03-15T18:29:56Z</time>
      </trkpt>
      <trkpt lat="59.458591" lon="17.8006571">
        <ele>12</ele>
        <time>2012-03-15T18:30:07Z</time>
      </trkpt>
      <trkpt lat="59.4583954" lon="17.8006837">
        <ele>11.6</ele>
        <time>2012-03-15T18:30:17Z</time>
      </trkpt>
      <trkpt lat="59.458205" lon="17.8007815">
        <ele>9.2</ele>
        <time>2012-03-15T18:30:27Z</time>
      </trkpt>
      <trkpt lat="59.4580211" lon="17.8008607">
        <ele>7.8</ele>
        <time>2012-03-15T18:30:37Z</time>
      </trkpt>
      <trkpt lat="59.4578319" lon="17.8009246">
        <ele>9.6</ele>
        <time>2012-03-15T18:30:47Z</time>
      </trkpt>
      <trkpt lat="59.4576419" lon="17.8010035">
        <ele>10</ele>
        <time>2012-03-15T18:30:57Z</time>
      </trkpt>
      <trkpt lat="59.4574471" lon="17.8010041">
        <ele>10</ele>
        <time>2012-03-15T18:31:07Z</time>
      </trkpt>
      <trkpt lat="59.4572573" lon="17.8010353">
        <ele>10.6</ele>
        <time>2012-03-15T18:31:17Z</time>
      </trkpt>
      <trkpt lat="59.4570654" lon="17.8011098">
        <ele>11.2</ele>
        <time>2012-03-15T18:31:27Z</time>
      </trkpt>
      <trkpt lat="59.4568906" lon="17.8011907">
        <ele>13.2</ele>
        <time>2012-03-15T18:31:36Z</time>
      </trkpt>
      <trkpt lat="59.4567148" lon="17.8012718">
        <ele>14.4</ele>
        <time>2012-03-15T18:31:45Z</time>
      </trkpt>
      <trkpt lat="59.4565407" lon="17.8014518">
        <ele>15.6</ele>
        <time>2012-03-15T18:31:55Z</time>
      </trkpt>
      <trkpt lat="59.4563928" lon="17.801661">
        <ele>16.6</ele>
        <time>2012-03-15T18:32:04Z</time>
      </trkpt>
      <trkpt lat="59.456265" lon="17.8018864">
        <ele>17</ele>
        <time>2012-03-15T18:32:13Z</time>
      </trkpt>
      <trkpt lat="59.4562438" lon="17.8019014">
        <ele>17.2</ele>
        <time>2012-03-15T18:32:14Z</time>
      </trkpt>
      <trkpt lat="59.4560638" lon="17.8020387">
        <ele>16.2</ele>
        <time>2012-03-15T18:32:24Z</time>
      </trkpt>
      <trkpt lat="59.4558776" lon="17.8021629">
        <ele>14.8</ele>
        <time>2012-03-15T18:32:33Z</time>
      </trkpt>
      <trkpt lat="59.4556883" lon="17.8022842">
        <ele>12.4</ele>
        <time>2012-03-15T18:32:43Z</time>
      </trkpt>
      <trkpt lat="59.4555076" lon="17.8024044">
        <ele>8.2</ele>
        <time>2012-03-15T18:32:53Z</time>
      </trkpt>
      <trkpt lat="59.4553314" lon="17.8025214">
        <ele>12</ele>
        <time>2012-03-15T18:33:02Z</time>
      </trkpt>
      <trkpt lat="59.4551477" lon="17.8026474">
        <ele>12.4</ele>
        <time>2012-03-15T18:33:12Z</time>
      </trkpt>
      <trkpt lat="59.4549763" lon="17.8027653">
        <ele>11.4</ele>
        <time>2012-03-15T18:33:21Z</time>
      </trkpt>
      <trkpt lat="59.4548406" lon="17.8029758">
        <ele>12.4</ele>
        <time>2012-03-15T18:33:29Z</time>
      </trkpt>
      <trkpt lat="59.454836" lon="17.803013">
        <ele>13.4</ele>
        <time>2012-03-15T18:33:30Z</time>
      </trkpt>
      <trkpt lat="59.4548693" lon="17.803139">
        <ele>14.8</ele>
        <time>2012-03-15T18:33:33Z</time>
      </trkpt>
      <trkpt lat="59.454942" lon="17.8033116">
        <ele>16.4</ele>
        <time>2012-03-15T18:33:38Z</time>
      </trkpt>
      <trkpt lat="59.4550079" lon="17.8034265">
        <ele>16.2</ele>
        <time>2012-03-15T18:33:41Z</time>
      </trkpt>
      <trkpt lat="59.4550503" lon="17.8036539">
        <ele>16.2</ele>
        <time>2012-03-15T18:33:45Z</time>
      </trkpt>
      <trkpt lat="59.4550235" lon="17.8040176">
        <ele>16.6</ele>
        <time>2012-03-15T18:33:54Z</time>
      </trkpt>
      <trkpt lat="59.4548737" lon="17.8042465">
        <ele>16.2</ele>
        <time>2012-03-15T18:34:05Z</time>
      </trkpt>
      <trkpt lat="59.4546912" lon="17.8043445">
        <ele>18</ele>
        <time>2012-03-15T18:34:15Z</time>
      </trkpt>
      <trkpt lat="59.4545108" lon="17.8044728">
        <ele>21.6</ele>
        <time>2012-03-15T18:34:26Z</time>
      </trkpt>
      <trkpt lat="59.4543423" lon="17.8046568">
        <ele>19.4</ele>
        <time>2012-03-15T18:34:37Z</time>
      </trkpt>
      <trkpt lat="59.4541846" lon="17.8048759">
        <ele>18.6</ele>
        <time>2012-03-15T18:34:48Z</time>
      </trkpt>
      <trkpt lat="59.4541074" lon="17.805023">
        <ele>18.2</ele>
        <time>2012-03-15T18:34:55Z</time>
      </trkpt>
      <trkpt lat="59.4541111" lon="17.8051146">
        <ele>18.2</ele>
        <time>2012-03-15T18:34:58Z</time>
      </trkpt>
      <trkpt lat="59.4541303" lon="17.8051514">
        <ele>18</ele>
        <time>2012-03-15T18:35:00Z</time>
      </trkpt>
      <trkpt lat="59.4542453" lon="17.8050828">
        <ele>19.2</ele>
        <time>2012-03-15T18:35:06Z</time>
      </trkpt>
      <trkpt lat="59.4543003" lon="17.805011">
        <ele>20.4</ele>
        <time>2012-03-15T18:35:09Z</time>
      </trkpt>
      <trkpt lat="59.4544523" lon="17.8048028">
        <ele>21.8</ele>
        <time>2012-03-15T18:35:18Z</time>
      </trkpt>
      <trkpt lat="59.4546043" lon="17.8045965">
        <ele>22.6</ele>
        <time>2012-03-15T18:35:27Z</time>
      </trkpt>
      <trkpt lat="59.4547716" lon="17.8044189">
        <ele>22.4</ele>
        <time>2012-03-15T18:35:37Z</time>
      </trkpt>
      <trkpt lat="59.4549584" lon="17.8043205">
        <ele>22.8</ele>
        <time>2012-03-15T18:35:47Z</time>
      </trkpt>
      <trkpt lat="59.4551377" lon="17.8042693">
        <ele>23.2</ele>
        <time>2012-03-15T18:35:57Z</time>
      </trkpt>
      <trkpt lat="59.4553269" lon="17.8042667">
        <ele>23.6</ele>
        <time>2012-03-15T18:36:08Z</time>
      </trkpt>
      <trkpt lat="59.4555044" lon="17.8043351">
        <ele>24</ele>
        <time>2012-03-15T18:36:18Z</time>
      </trkpt>
      <trkpt lat="59.4556854" lon="17.8044811">
        <ele>26</ele>
        <time>2012-03-15T18:36:28Z</time>
      </trkpt>
      <trkpt lat="59.455849" lon="17.8046333">
        <ele>25.8</ele>
        <time>2012-03-15T18:36:39Z</time>
      </trkpt>
      <trkpt lat="59.4560154" lon="17.8047782">
        <ele>27</ele>
        <time>2012-03-15T18:36:48Z</time>
      </trkpt>
      <trkpt lat="59.4561992" lon="17.8049381">
        <ele>32</ele>
        <time>2012-03-15T18:37:00Z</time>
      </trkpt>
      <trkpt lat="59.4563702" lon="17.8050628">
        <ele>36.2</ele>
        <time>2012-03-15T18:37:10Z</time>
      </trkpt>
      <trkpt lat="59.4565409" lon="17.8051748">
        <ele>36.2</ele>
        <time>2012-03-15T18:37:18Z</time>
      </trkpt>
      <trkpt lat="59.4567276" lon="17.805284">
        <ele>34</ele>
        <time>2012-03-15T18:37:27Z</time>
      </trkpt>
      <trkpt lat="59.4569098" lon="17.8053648">
        <ele>35.8</ele>
        <time>2012-03-15T18:37:37Z</time>
      </trkpt>
      <trkpt lat="59.4570978" lon="17.8053691">
        <ele>31.6</ele>
        <time>2012-03-15T18:37:48Z</time>
      </trkpt>
      <trkpt lat="59.4572487" lon="17.8051186">
        <ele>29.8</ele>
        <time>2012-03-15T18:37:59Z</time>
      </trkpt>
      <trkpt lat="59.4574034" lon="17.804877">
        <ele>28.8</ele>
        <time>2012-03-15T18:38:09Z</time>
      </trkpt>
      <trkpt lat="59.4575567" lon="17.8046892">
        <ele>28.2</ele>
        <time>2012-03-15T18:38:18Z</time>
      </trkpt>
      <trkpt lat="59.4577169" lon="17.8044939">
        <ele>26.8</ele>
        <time>2012-03-15T18:38:27Z</time>
      </trkpt>
      <trkpt lat="59.4579009" lon="17.804337">
        <ele>26.6</ele>
        <time>2012-03-15T18:38:37Z</time>
      </trkpt>
      <trkpt lat="59.4580851" lon="17.8042668">
        <ele>25.2</ele>
        <time>2012-03-15T18:38:47Z</time>
      </trkpt>
      <trkpt lat="59.4582734" lon="17.804233">
        <ele>26.2</ele>
        <time>2012-03-15T18:38:57Z</time>
      </trkpt>
      <trkpt lat="59.4584536" lon="17.8042921">
        <ele>32.8</ele>
        <time>2012-03-15T18:39:07Z</time>
      </trkpt>
      <trkpt lat="59.4585708" lon="17.8042973">
        <ele>42.8</ele>
        <time>2012-03-15T18:39:14Z</time>
      </trkpt>
      <trkpt lat="59.4586422" lon="17.8042951">
        <ele>44</ele>
        <time>2012-03-15T18:39:18Z</time>
      </trkpt>
      <trkpt lat="59.4588241" lon="17.804237">
        <ele>39.2</ele>
        <time>2012-03-15T18:39:26Z</time>
      </trkpt>
      <trkpt lat="59.4589571" lon="17.8041551">
        <ele>35.8</ele>
        <time>2012-03-15T18:39:34Z</time>
      </trkpt>
      <trkpt lat="59.4589991" lon="17.8041171">
        <ele>35.6</ele>
        <time>2012-03-15T18:39:37Z</time>
      </trkpt>
      <trkpt lat="59.4591601" lon="17.8039147">
        <ele>30.4</ele>
        <time>2012-03-15T18:39:49Z</time>
      </trkpt>
      <trkpt lat="59.4591886" lon="17.8038811">
        <ele>30</ele>
        <time>2012-03-15T18:39:51Z</time>
      </trkpt>
      <trkpt lat="59.4593025" lon="17.8036637">
        <ele>31.2</ele>
        <time>2012-03-15T18:40:02Z</time>
      </trkpt>
      <trkpt lat="59.4593363" lon="17.8035678">
        <ele>28</ele>
        <time>2012-03-15T18:40:06Z</time>
      </trkpt>
      <trkpt lat="59.4593824" lon="17.8033429">
        <ele>22</ele>
        <time>2012-03-15T18:40:14Z</time>
      </trkpt>
      <trkpt lat="59.459395" lon="17.803333">
        <ele>20.2</ele>
        <time>2012-03-15T18:40:23Z</time>
      </trkpt>
      <trkpt lat="59.4593823" lon="17.8033829">
        <ele>19.8</ele>
        <time>2012-03-15T18:40:25Z</time>
      </trkpt>
      <trkpt lat="59.4593446" lon="17.8035103">
        <ele>19.6</ele>
        <time>2012-03-15T18:40:30Z</time>
      </trkpt>
      <trkpt lat="59.4592703" lon="17.8037676">
        <ele>18.8</ele>
        <time>2012-03-15T18:40:41Z</time>
      </trkpt>
      <trkpt lat="59.4592426" lon="17.8038313">
        <ele>16</ele>
        <time>2012-03-15T18:40:45Z</time>
      </trkpt>
      <trkpt lat="59.4591955" lon="17.8039021">
        <ele>14.6</ele>
        <time>2012-03-15T18:40:49Z</time>
      </trkpt>
      <trkpt lat="59.4590928" lon="17.8040295">
        <ele>15.2</ele>
        <time>2012-03-15T18:40:57Z</time>
      </trkpt>
      <trkpt lat="59.4589896" lon="17.8041625">
        <ele>15</ele>
        <time>2012-03-15T18:41:06Z</time>
      </trkpt>
    </trkseg>
  </trk>
</gpx>